Erria Swan — 9HHJ9 — position and weather

sailwx.info

Track history (hours):
 
Tides and Currents Weather Stations Pressure Air Temp Water Temp Dewpoint Dewpoint Depression Visibility Wind Speed Wind Dir Waves Ship Positions

Erria Swan

Last reported at 2015-Oct-05 04:12 UTC. Time now 2016-Jul-01 09:58 UTC.
Position N 36°09' W 005°26'.
Warning: this ship's position is months out of date.

Length 134 m; draft 5.8 m.

Type: Tanker. MMSI: 256986000.

Date/timePositionNaut miles runAvg speedWind from/ knotsBaromVisibWave heightAir tempDewpointWater temp
2015-Oct-05 04:12N 36°09' W 005°26'0 0.0
2015-Oct-05 03:31N 36°09' W 005°26'0 0.0
2015-Oct-05 02:33N 36°09' W 005°26'0 0.0
2015-Oct-05 01:32N 36°09' W 005°26'0 0.0
2015-Oct-05 00:32N 36°09' W 005°26'0 0.0
2015-Oct-04 23:29N 36°09' W 005°26'0 0.0
2015-Oct-04 22:33N 36°09' W 005°26'0 0.0
2015-Oct-04 21:33N 36°09' W 005°26'0 0.0
2015-Oct-04 20:33N 36°09' W 005°26'0 0.0
2015-Oct-04 19:33N 36°09' W 005°26'0 0.0
2015-Oct-04 16:29N 36°09' W 005°26'0 0.0
2015-Oct-04 15:33N 36°09' W 005°26'0 0.4
2015-Oct-04 14:33N 36°09' W 005°26'5 4.9
2015-Oct-04 13:33N 36°05' W 005°23'8 7.8
2015-Oct-04 12:33N 35°58' W 005°27'4213.9
2015-Oct-04 09:31N 35°53' W 006°19'1313.2
2015-Oct-04 08:33N 35°54' W 006°35'1313.1
2015-Oct-04 07:33N 35°54' W 006°51'1512.9
2015-Oct-04 06:22N 35°54' W 007°10'1112.9
2015-Oct-04 05:33N 35°54' W 007°23'1313.0
2015-Oct-04 04:34N 35°54' W 007°39'1312.7
2015-Oct-04 03:34N 35°54' W 007°54'1312.9
2015-Oct-04 02:34N 35°54' W 008°10'1312.8
2015-Oct-04 01:34N 35°55' W 008°26'1313.0
2015-Oct-04 00:34N 35°55' W 008°42'1312.8
2015-Oct-03 23:34N 35°55' W 008°58'1313.0
2015-Oct-03 22:33N 35°55' W 009°14'1313.2
2015-Oct-03 21:33N 35°55' W 009°30'1512.9
2015-Oct-03 20:25N 35°55' W 009°48'  
2015-Oct-01 15:06N 36°01' W 023°49'611.8
2015-Oct-01 14:33N 36°01' W 023°57'6 5.6
2015-Oct-01 13:34N 36°01' W 024°03'1313.0
2015-Oct-01 12:34N 36°01' W 024°19'1312.8
2015-Oct-01 11:34N 36°01' W 024°35'1312.7
2015-Oct-01 10:33N 36°01' W 024°51'1312.6
2015-Oct-01 09:34N 36°02' W 025°07'1313.0
2015-Oct-01 08:34N 36°02' W 025°23'1313.2
2015-Oct-01 07:34N 36°04' W 025°39'1313.3
2015-Oct-01 06:34N 36°05' W 025°55'1313.0
2015-Oct-01 05:34N 36°06' W 026°11'  
Track history (hours):
 
Tides and Currents Weather Stations Pressure Air Temp Water Temp Dewpoint Dewpoint Depression Visibility Wind Speed Wind Dir Waves Ship Positions

Erria Swan

Last reported at 2015-Oct-05 04:12 UTC. Time now 2016-Jul-01 09:58 UTC.
Position N 36°09' W 005°26'.
Warning: this ship's position is months out of date.

Length 134 m; draft 5.8 m.

Type: Tanker. MMSI: 256986000.

Date/timePositionNaut miles runAvg speedWind from/ knotsBaromVisibWave heightAir tempDewpointWater temp
2015-Oct-05 04:12N 36°09' W 005°26'0 0.0
2015-Oct-05 03:31N 36°09' W 005°26'0 0.0
2015-Oct-05 02:33N 36°09' W 005°26'0 0.0
2015-Oct-05 01:32N 36°09' W 005°26'0 0.0
2015-Oct-05 00:32N 36°09' W 005°26'0 0.0
2015-Oct-04 23:29N 36°09' W 005°26'0 0.0
2015-Oct-04 22:33N 36°09' W 005°26'0 0.0
2015-Oct-04 21:33N 36°09' W 005°26'0 0.0
2015-Oct-04 20:33N 36°09' W 005°26'0 0.0
2015-Oct-04 19:33N 36°09' W 005°26'0 0.0
2015-Oct-04 16:29N 36°09' W 005°26'0 0.0
2015-Oct-04 15:33N 36°09' W 005°26'0 0.4
2015-Oct-04 14:33N 36°09' W 005°26'5 4.9
2015-Oct-04 13:33N 36°05' W 005°23'8 7.8
2015-Oct-04 12:33N 35°58' W 005°27'4213.9
2015-Oct-04 09:31N 35°53' W 006°19'1313.2
2015-Oct-04 08:33N 35°54' W 006°35'1313.1
2015-Oct-04 07:33N 35°54' W 006°51'1512.9
2015-Oct-04 06:22N 35°54' W 007°10'1112.9
2015-Oct-04 05:33N 35°54' W 007°23'1313.0
2015-Oct-04 04:34N 35°54' W 007°39'1312.7
2015-Oct-04 03:34N 35°54' W 007°54'1312.9
2015-Oct-04 02:34N 35°54' W 008°10'1312.8
2015-Oct-04 01:34N 35°55' W 008°26'1313.0
2015-Oct-04 00:34N 35°55' W 008°42'1312.8
2015-Oct-03 23:34N 35°55' W 008°58'1313.0
2015-Oct-03 22:33N 35°55' W 009°14'1313.2
2015-Oct-03 21:33N 35°55' W 009°30'1512.9
2015-Oct-03 20:25N 35°55' W 009°48'  
2015-Oct-01 15:06N 36°01' W 023°49'611.8
2015-Oct-01 14:33N 36°01' W 023°57'6 5.6
2015-Oct-01 13:34N 36°01' W 024°03'1313.0
2015-Oct-01 12:34N 36°01' W 024°19'1312.8
2015-Oct-01 11:34N 36°01' W 024°35'1312.7
2015-Oct-01 10:33N 36°01' W 024°51'1312.6
2015-Oct-01 09:34N 36°02' W 025°07'1313.0
2015-Oct-01 08:34N 36°02' W 025°23'1313.2
2015-Oct-01 07:34N 36°04' W 025°39'1313.3
2015-Oct-01 06:34N 36°05' W 025°55'1313.0
2015-Oct-01 05:34N 36°06' W 026°11'  

Dump ship's entire track history